Avoca, Minnesota
Current Conditions -  °F | °C
As of 2:54 AM on Wednesday 22 Oct 2014 (Local Time) from KDVP Reporting Station
Clear Clear  
Wind Chill:   Ceiling: Unl
Heat Index:   Visibility: 10mi
Dew Point:   Wind: 15mph
Humidity: 78%   Direction: 150°SSE
Pressure: 30.07"   Gusts: NA
Location:  43.95°N, 95.65°W
Report Text: KDVP 220754Z AUTO 15013KT 10SM CLR 09/05 A3007 RMK AO2 T00860050
Loading
Personal Weather Stations






























Interactive Weather Map
Tropical Storm Tracking
New forecast layout! Learn more

10-Day Weather Forecast

Advertisements
Track Severe Weather on mobile